Time;durP1;ratioP1;P1;durP2;ratioP2;P2;SDS_P1;SDS_P2;PMS_P1;PMS_P2;Temp;Humidity;BMP_temperature;BMP_pressure;BME280_temperature;BME280_humidity;BME280_pressure;Samples;Min_cycle;Max_cycle;Signal;HPM_P1;HPM_P2
2023/08/11 00:01:40;;;;;;;7.88;5.68;;;18.90;99.90;;;;;;6212820;23;20009;-79
2023/08/11 00:04:06;;;;;;;6.28;5.78;;;19.00;99.90;;;;;;6211917;23;20023;-80
2023/08/11 00:06:32;;;;;;;6.57;5.97;;;18.90;99.90;;;;;;6212720;23;19997;-79
2023/08/11 00:08:58;;;;;;;7.38;6.68;;;18.90;99.90;;;;;;6211807;23;20008;-79
2023/08/11 00:11:24;;;;;;;6.70;6.05;;;18.90;99.90;;;;;;6211708;23;20012;-80
2023/08/11 00:13:50;;;;;;;8.32;7.47;;;18.80;99.90;;;;;;6211183;23;20005;-79
2023/08/11 00:16:15;;;;;;;7.78;6.63;;;18.80;99.90;;;;;;6211542;23;20027;-79
2023/08/11 00:18:41;;;;;;;6.80;6.18;;;18.80;99.90;;;;;;6211805;23;20027;-79
2023/08/11 00:21:07;;;;;;;7.93;7.13;;;18.70;99.90;;;;;;6212147;23;20075;-79
2023/08/11 00:23:35;;;;;;;7.00;6.32;;;18.70;99.90;;;;;;6212280;23;20032;-79
2023/08/11 00:26:01;;;;;;;8.05;7.15;;;18.70;99.90;;;;;;6212337;23;20079;-79
2023/08/11 00:28:27;;;;;;;7.80;7.07;;;18.70;99.90;;;;;;6212328;23;20028;-80
2023/08/11 00:30:54;;;;;;;7.32;6.60;;;18.70;99.90;;;;;;6212108;23;20300;-79
2023/08/11 00:33:19;;;;;;;6.88;6.22;;;18.70;99.90;;;;;;6210207;23;20040;-80
2023/08/11 00:35:45;;;;;;;6.88;6.28;;;18.70;99.90;;;;;;6211024;23;20012;-80
2023/08/11 00:38:11;;;;;;;7.65;6.97;;;18.70;99.90;;;;;;6212194;23;20207;-80
2023/08/11 00:40:36;;;;;;;6.75;6.15;;;18.70;99.90;;;;;;6212199;23;20012;-80
2023/08/11 00:43:02;;;;;;;7.47;6.78;;;18.70;99.90;;;;;;6212003;23;20036;-80
2023/08/11 00:45:29;;;;;;;7.18;6.47;;;18.60;99.90;;;;;;6211992;23;20011;-78
2023/08/11 00:47:56;;;;;;;9.73;8.20;;;18.60;99.90;;;;;;6212374;23;20088;-79
2023/08/11 00:50:22;;;;;;;7.70;7.00;;;18.60;99.90;;;;;;6212161;23;20028;-80
2023/08/11 00:52:49;;;;;;;7.78;7.18;;;18.60;99.90;;;;;;6212192;23;20015;-79
2023/08/11 00:55:18;;;;;;;8.15;7.40;;;18.60;99.90;;;;;;6211764;23;20009;-80
2023/08/11 00:57:44;;;;;;;8.15;7.22;;;18.60;99.90;;;;;;6212243;23;20080;-80
2023/08/11 01:00:14;;;;;;;8.07;7.32;;;18.50;99.90;;;;;;6184815;23;20312;-80
2023/08/11 01:02:42;;;;;;;9.93;9.00;;;18.50;99.90;;;;;;6209637;23;20142;-79
2023/08/11 01:05:12;;;;;;;9.00;7.50;;;18.50;99.90;;;;;;6211026;23;20004;-79
2023/08/11 01:08:03;;;;;;;8.10;7.50;;;18.50;99.90;;;;;;6211800;23;20000;-80
2023/08/11 01:10:45;;;;;;;7.13;6.40;;;18.50;99.90;;;;;;6211766;23;20094;-80
2023/08/11 01:13:19;;;;;;;7.85;6.75;;;18.50;99.90;;;;;;6211673;23;20430;-80
2023/08/11 01:15:56;;;;;;;8.00;7.30;;;18.40;99.90;;;;;;6211622;23;20007;-80
2023/08/11 01:18:23;;;;;;;8.13;7.45;;;18.40;99.90;;;;;;6211921;23;20032;-80
2023/08/11 01:20:53;;;;;;;7.80;7.10;;;18.40;99.90;;;;;;6212189;23;20017;-79
2023/08/11 01:23:21;;;;;;;9.10;8.38;;;18.40;99.90;;;;;;6211034;23;20043;-79
2023/08/11 01:25:48;;;;;;;9.38;8.50;;;18.40;99.90;;;;;;6212163;23;20085;-80
2023/08/11 01:28:14;;;;;;;9.18;8.32;;;18.30;99.90;;;;;;6211632;23;19996;-79
2023/08/11 01:30:40;;;;;;;8.45;7.75;;;18.40;99.90;;;;;;6211361;23;20139;-79
2023/08/11 01:33:05;;;;;;;10.57;9.57;;;18.30;99.90;;;;;;6211759;23;20032;-79
2023/08/11 01:35:31;;;;;;;8.23;7.55;;;18.30;99.90;;;;;;6211805;23;20008;-79
2023/08/11 01:37:57;;;;;;;10.23;9.32;;;18.30;99.90;;;;;;6212194;23;20081;-79
2023/08/11 01:40:23;;;;;;;9.80;8.90;;;18.30;99.90;;;;;;6211668;23;20004;-79
2023/08/11 01:42:50;;;;;;;9.05;8.20;;;18.30;99.90;;;;;;6211956;23;20051;-79
2023/08/11 01:45:16;;;;;;;11.02;10.02;;;18.30;99.90;;;;;;6211002;23;20660;-79
2023/08/11 01:47:46;;;;;;;9.90;9.02;;;18.20;99.90;;;;;;6212074;23;20001;-79
2023/08/11 01:50:13;;;;;;;9.90;9.05;;;18.20;99.90;;;;;;6211605;23;20001;-79
2023/08/11 01:52:42;;;;;;;10.25;8.70;;;18.20;99.90;;;;;;6211878;23;20066;-79
2023/08/11 01:55:11;;;;;;;10.25;8.45;;;18.20;99.90;;;;;;6210018;23;20031;-79
2023/08/11 01:57:38;;;;;;;10.18;9.27;;;18.20;99.90;;;;;;6210377;23;20312;-79
2023/08/11 02:00:13;;;;;;;10.55;9.57;;;18.20;99.90;;;;;;6209757;23;20373;-80
2023/08/11 02:02:43;;;;;;;10.45;9.48;;;18.20;99.90;;;;;;6210504;23;20092;-80
2023/08/11 02:05:15;;;;;;;8.90;8.13;;;18.10;99.90;;;;;;6210256;23;20004;-79
2023/08/11 02:07:42;;;;;;;9.65;8.75;;;18.10;99.90;;;;;;6210595;23;20410;-80
2023/08/11 02:10:08;;;;;;;10.25;9.43;;;18.10;99.90;;;;;;6210375;23;20055;-79
2023/08/11 02:12:38;;;;;;;10.63;9.73;;;18.10;99.90;;;;;;6210064;23;20008;-80
2023/08/11 02:15:07;;;;;;;14.82;9.45;;;18.10;99.90;;;;;;6210025;23;20007;-80
2023/08/11 02:17:33;;;;;;;10.52;9.63;;;18.10;99.90;;;;;;6210210;23;20012;-80
2023/08/11 02:20:00;;;;;;;10.63;9.50;;;18.10;99.90;;;;;;6183652;23;20012;-79
2023/08/11 02:22:26;;;;;;;12.02;10.30;;;18.00;99.90;;;;;;6209938;23;20011;-80
2023/08/11 02:24:52;;;;;;;10.18;9.25;;;18.00;99.90;;;;;;6183772;23;20455;-80
2023/08/11 02:27:17;;;;;;;9.77;8.95;;;18.00;99.90;;;;;;6209156;23;20024;-79
2023/08/11 02:29:44;;;;;;;10.55;9.65;;;18.00;99.90;;;;;;6210136;23;19997;-79
2023/08/11 02:32:11;;;;;;;10.48;9.50;;;17.90;99.90;;;;;;6183187;23;20330;-79
2023/08/11 02:34:37;;;;;;;10.75;9.65;;;17.90;99.90;;;;;;6183942;23;20008;-79
2023/08/11 02:37:03;;;;;;;10.30;9.40;;;17.90;99.90;;;;;;6211582;23;20005;-80
2023/08/11 02:39:28;;;;;;;12.98;11.77;;;17.90;99.90;;;;;;6211573;23;20005;-80
2023/08/11 02:41:55;;;;;;;14.82;13.45;;;17.80;99.90;;;;;;6211263;23;20442;-80
2023/08/11 02:44:22;;;;;;;10.10;9.30;;;17.80;99.90;;;;;;6211331;23;20000;-80
2023/08/11 02:46:47;;;;;;;12.40;11.25;;;17.80;99.90;;;;;;6212024;23;20075;-80
2023/08/11 02:49:13;;;;;;;12.77;11.57;;;17.80;99.90;;;;;;6211246;23;20031;-79
2023/08/11 02:51:38;;;;;;;13.32;12.15;;;17.80;99.90;;;;;;6211151;23;20013;-79
2023/08/11 02:54:04;;;;;;;12.90;11.32;;;17.80;99.90;;;;;;6164858;23;1062371;-79
2023/08/11 02:56:30;;;;;;;14.88;13.40;;;17.70;99.90;;;;;;6211170;23;20638;-80
2023/08/11 02:58:56;;;;;;;11.65;10.75;;;17.70;99.90;;;;;;6211819;23;20511;-80
2023/08/11 03:01:23;;;;;;;13.20;12.00;;;17.70;99.90;;;;;;6212076;23;20011;-80
2023/08/11 03:03:49;;;;;;;11.02;10.02;;;17.70;99.90;;;;;;6211872;23;20005;-80
2023/08/11 03:06:14;;;;;;;13.75;12.35;;;17.70;99.90;;;;;;6212612;23;20366;-80
2023/08/11 03:08:40;;;;;;;12.38;11.38;;;17.60;99.90;;;;;;6213359;23;20010;-80
2023/08/11 03:11:06;;;;;;;12.98;11.50;;;17.60;99.90;;;;;;6212446;23;20390;-80
2023/08/11 03:13:32;;;;;;;10.93;9.95;;;17.60;99.90;;;;;;6213067;23;20001;-79
2023/08/11 03:15:58;;;;;;;12.63;11.45;;;17.60;99.90;;;;;;6213251;23;20012;-81
2023/08/11 03:18:24;;;;;;;10.85;9.80;;;17.50;99.90;;;;;;6186269;23;20012;-80
2023/08/11 03:20:52;;;;;;;13.38;12.07;;;17.50;99.90;;;;;;6212976;23;20005;-80
2023/08/11 03:23:18;;;;;;;12.90;11.60;;;17.50;99.90;;;;;;6212485;23;20004;-79
2023/08/11 03:25:44;;;;;;;11.88;10.77;;;17.50;99.90;;;;;;6212577;23;20001;-80
2023/08/11 03:28:09;;;;;;;11.23;10.15;;;17.50;99.90;;;;;;6212726;23;20005;-80
2023/08/11 03:30:35;;;;;;;11.82;10.73;;;17.50;99.90;;;;;;6186298;23;20624;-80
2023/08/11 03:33:00;;;;;;;11.30;10.38;;;17.40;99.90;;;;;;6213003;23;20000;-80
2023/08/11 03:35:26;;;;;;;12.52;11.30;;;17.40;99.90;;;;;;6212635;23;20448;-80
2023/08/11 03:37:52;;;;;;;12.27;11.07;;;17.40;99.90;;;;;;6186689;23;20005;-79
2023/08/11 03:40:17;;;;;;;12.63;10.60;;;17.40;99.90;;;;;;6211811;23;20009;-79
2023/08/11 03:42:43;;;;;;;12.27;11.18;;;17.40;99.90;;;;;;6186449;23;20012;-80
2023/08/11 03:45:14;;;;;;;16.10;13.38;;;17.30;99.90;;;;;;6212407;23;20013;-80
2023/08/11 03:47:41;;;;;;;11.60;10.50;;;17.30;99.90;;;;;;6212530;23;20012;-80
2023/08/11 03:50:08;;;;;;;12.95;11.75;;;17.30;99.90;;;;;;6212609;23;20003;-80
2023/08/11 03:52:34;;;;;;;13.05;11.77;;;17.30;99.90;;;;;;6185982;23;20112;-80
2023/08/11 03:55:00;;;;;;;12.77;11.48;;;17.30;99.90;;;;;;6212100;23;20422;-81
2023/08/11 03:57:26;;;;;;;11.70;10.55;;;17.30;99.90;;;;;;6212021;23;20015;-80
2023/08/11 03:59:52;;;;;;;12.13;10.95;;;17.30;99.90;;;;;;6212744;23;20008;-80
2023/08/11 04:02:17;;;;;;;12.30;11.20;;;17.20;99.90;;;;;;6211953;23;20034;-80
2023/08/11 04:04:43;;;;;;;13.38;12.00;;;17.30;99.90;;;;;;6212927;23;20506;-80
2023/08/11 04:07:09;;;;;;;11.63;10.43;;;17.20;99.90;;;;;;6212390;23;20087;-81
2023/08/11 04:09:35;;;;;;;11.45;10.45;;;17.30;99.90;;;;;;6212049;23;20024;-80
2023/08/11 04:12:00;;;;;;;12.48;11.27;;;17.20;99.90;;;;;;6212510;23;20001;-79
2023/08/11 04:14:26;;;;;;;11.02;10.13;;;17.20;99.90;;;;;;6185573;23;20431;-80
2023/08/11 04:16:51;;;;;;;12.70;11.60;;;17.20;99.90;;;;;;6212662;23;20127;-80
2023/08/11 04:19:17;;;;;;;12.70;10.18;;;17.20;99.90;;;;;;6212006;23;20047;-80
2023/08/11 04:21:43;;;;;;;13.07;10.98;;;17.20;99.90;;;;;;6212568;23;20054;-80
2023/08/11 04:24:08;;;;;;;14.40;12.40;;;17.20;99.90;;;;;;6211710;23;20071;-80
2023/08/11 04:26:34;;;;;;;11.80;10.60;;;17.20;99.90;;;;;;6185649;23;20055;-80
2023/08/11 04:29:01;;;;;;;11.43;10.40;;;17.20;99.90;;;;;;6212374;23;19996;-80
2023/08/11 04:31:27;;;;;;;12.10;10.90;;;17.20;99.90;;;;;;6212100;23;20000;-80
2023/08/11 04:33:53;;;;;;;12.27;11.18;;;17.20;99.90;;;;;;6212512;23;20418;-80
2023/08/11 04:36:19;;;;;;;12.02;10.82;;;17.30;99.90;;;;;;6211703;23;20012;-80
2023/08/11 04:38:45;;;;;;;13.40;11.98;;;17.20;99.90;;;;;;6212058;23;20016;-79
2023/08/11 04:41:10;;;;;;;12.10;11.00;;;17.20;99.90;;;;;;6211786;23;20072;-79
2023/08/11 04:43:36;;;;;;;12.55;11.00;;;17.20;99.90;;;;;;6211590;23;20569;-80
2023/08/11 04:46:03;;;;;;;11.25;10.05;;;17.20;99.90;;;;;;6211900;23;20023;-80
2023/08/11 04:48:29;;;;;;;15.82;13.70;;;17.30;99.90;;;;;;6211914;23;20016;-79
2023/08/11 04:50:56;;;;;;;11.70;10.50;;;17.30;99.90;;;;;;6212261;23;20419;-80
2023/08/11 04:53:22;;;;;;;11.18;10.20;;;17.30;99.90;;;;;;6211220;23;20016;-80
2023/08/11 04:55:48;;;;;;;12.27;11.07;;;17.30;99.90;;;;;;6212141;23;20032;-80
2023/08/11 04:58:14;;;;;;;11.52;10.27;;;17.30;99.90;;;;;;6211615;23;20068;-79
2023/08/11 05:00:40;;;;;;;12.02;10.95;;;17.30;99.90;;;;;;6185407;23;20099;-79
2023/08/11 05:03:05;;;;;;;12.30;11.23;;;17.20;99.90;;;;;;6211799;23;20054;-79
2023/08/11 05:05:31;;;;;;;13.45;12.15;;;17.30;99.90;;;;;;6211747;23;19992;-79
2023/08/11 05:07:57;;;;;;;12.60;11.40;;;17.30;99.90;;;;;;6211660;23;20001;-79
2023/08/11 05:10:22;;;;;;;12.50;11.40;;;17.30;99.90;;;;;;6211641;23;20015;-79
2023/08/11 05:12:49;;;;;;;13.13;10.93;;;17.30;99.90;;;;;;6212238;23;20008;-80
2023/08/11 05:15:14;;;;;;;13.27;11.75;;;17.40;99.90;;;;;;6211526;23;20000;-79
2023/08/11 05:17:40;;;;;;;12.07;10.98;;;17.40;99.90;;;;;;6212108;23;20062;-80
2023/08/11 05:20:07;;;;;;;12.57;11.32;;;17.40;99.90;;;;;;6211773;23;20476;-80
2023/08/11 05:22:36;;;;;;;13.98;11.85;;;17.50;99.90;;;;;;6211550;23;20015;-79
2023/08/11 05:25:05;;;;;;;12.95;11.65;;;17.50;99.90;;;;;;6211727;23;20021;-79
2023/08/11 05:27:31;;;;;;;12.43;11.23;;;17.50;99.90;;;;;;6212081;23;20074;-80
2023/08/11 05:29:57;;;;;;;14.10;11.73;;;17.60;99.90;;;;;;6211980;23;20074;-79
2023/08/11 05:32:26;;;;;;;11.27;10.25;;;17.60;99.90;;;;;;6211643;23;20415;-80
2023/08/11 05:34:52;;;;;;;13.98;12.55;;;17.60;99.90;;;;;;6212201;23;20007;-80
2023/08/11 05:37:18;;;;;;;12.13;11.00;;;17.60;99.90;;;;;;6210868;23;20319;-80
2023/08/11 05:39:43;;;;;;;11.55;10.45;;;17.70;99.90;;;;;;6185528;23;20016;-80
2023/08/11 05:42:09;;;;;;;12.98;11.68;;;17.70;99.90;;;;;;6211536;23;20055;-79
2023/08/11 05:44:35;;;;;;;11.65;10.50;;;17.80;99.90;;;;;;6211783;23;20000;-80
2023/08/11 05:47:01;;;;;;;11.95;10.88;;;17.80;99.90;;;;;;6211852;23;20004;-80
2023/08/11 05:49:27;;;;;;;13.73;12.15;;;17.80;99.90;;;;;;6211834;23;20017;-80
2023/08/11 05:51:54;;;;;;;11.05;9.93;;;17.90;99.90;;;;;;6211530;23;20009;-80
2023/08/11 05:54:19;;;;;;;11.38;10.25;;;17.90;99.90;;;;;;6198972;23;20438;-80
2023/08/11 05:56:45;;;;;;;11.57;9.65;;;18.00;99.90;;;;;;6212206;23;20008;-80
2023/08/11 05:59:11;;;;;;;11.00;10.05;;;18.10;99.90;;;;;;6211601;23;19996;-80
2023/08/11 06:01:37;;;;;;;9.93;9.10;;;18.10;99.90;;;;;;6211623;23;20031;-80
2023/08/11 06:04:03;;;;;;;11.18;10.18;;;18.10;99.90;;;;;;6211604;23;20005;-79
2023/08/11 06:06:28;;;;;;;11.15;10.07;;;18.10;99.90;;;;;;6211028;23;20008;-80
2023/08/11 06:08:54;;;;;;;13.77;10.70;;;18.20;99.90;;;;;;6212269;23;20007;-79
2023/08/11 06:11:21;;;;;;;11.88;10.73;;;18.30;99.90;;;;;;6211638;23;20323;-78
2023/08/11 06:13:46;;;;;;;11.45;10.27;;;18.30;99.90;;;;;;6213994;23;20000;-80
2023/08/11 06:16:12;;;;;;;12.48;10.02;;;18.30;99.90;;;;;;6213290;23;20031;-79
2023/08/11 06:18:38;;;;;;;14.30;11.25;;;18.40;99.90;;;;;;6213710;23;20529;-80
2023/08/11 06:21:04;;;;;;;12.85;10.38;;;18.50;99.90;;;;;;6212869;23;20004;-79
2023/08/11 06:23:31;;;;;;;13.63;10.50;;;18.50;99.90;;;;;;6213538;23;20009;-79
2023/08/11 06:25:56;;;;;;;12.13;8.65;;;18.50;99.90;;;;;;6213482;23;20000;-79
2023/08/11 06:28:22;;;;;;;10.82;9.55;;;18.50;99.90;;;;;;6213545;23;20000;-80
2023/08/11 06:30:48;;;;;;;11.70;8.63;;;18.60;99.90;;;;;;6213788;23;20000;-79
2023/08/11 06:33:13;;;;;;;14.40;10.65;;;18.60;99.90;;;;;;6213413;23;20004;-79
2023/08/11 06:35:39;;;;;;;11.00;9.90;;;18.70;99.90;;;;;;6212835;23;20490;-79
2023/08/11 06:38:04;;;;;;;10.07;9.07;;;18.80;99.90;;;;;;6213890;23;20001;-80
2023/08/11 06:40:30;;;;;;;10.30;9.20;;;18.80;99.90;;;;;;6213169;23;20024;-79
2023/08/11 06:42:56;;;;;;;11.88;9.20;;;18.80;99.90;;;;;;6211672;23;20009;-80
2023/08/11 06:45:21;;;;;;;11.07;9.95;;;18.90;99.90;;;;;;6212989;23;20005;-80
2023/08/11 06:47:47;;;;;;;12.55;10.02;;;18.90;99.90;;;;;;6213650;23;20326;-80
2023/08/11 06:50:12;;;;;;;9.48;8.55;;;19.00;99.90;;;;;;6212370;23;20000;-80
2023/08/11 06:52:38;;;;;;;10.65;9.60;;;19.00;99.90;;;;;;6213494;23;20088;-80
2023/08/11 06:55:05;;;;;;;9.55;8.70;;;19.10;99.90;;;;;;6212889;23;20382;-80
2023/08/11 06:57:30;;;;;;;12.30;8.98;;;19.10;99.90;;;;;;6213218;23;20004;-80
2023/08/11 06:59:56;;;;;;;9.38;8.18;;;19.20;99.90;;;;;;6213261;23;20004;-79
2023/08/11 07:02:22;;;;;;;9.23;7.97;;;19.20;99.90;;;;;;6212235;23;20012;-80
2023/08/11 07:04:48;;;;;;;11.10;9.02;;;19.30;99.90;;;;;;6213355;23;20031;-79
2023/08/11 07:07:13;;;;;;;11.18;9.15;;;19.40;99.90;;;;;;6212640;23;20004;-79
2023/08/11 07:09:39;;;;;;;11.80;7.82;;;19.40;99.90;;;;;;6213327;23;20054;-80
2023/08/11 07:12:06;;;;;;;10.63;7.50;;;19.50;99.90;;;;;;6186106;23;20430;-79
2023/08/11 07:14:31;;;;;;;8.55;7.65;;;19.50;99.90;;;;;;6213143;23;20411;-77
2023/08/11 07:16:57;;;;;;;8.88;7.97;;;19.60;99.90;;;;;;6184337;23;20010;-73
2023/08/11 07:19:23;;;;;;;11.27;8.07;;;19.60;99.90;;;;;;6212026;23;20000;-74
2023/08/11 07:21:48;;;;;;;10.75;7.07;;;19.70;99.90;;;;;;6212268;23;20008;-72
2023/08/11 07:24:14;;;;;;;8.90;7.95;;;19.80;99.90;;;;;;6211965;23;20449;-73
2023/08/11 07:26:41;;;;;;;12.15;8.30;;;19.80;99.90;;;;;;6185857;23;20796;-73
2023/08/11 07:29:07;;;;;;;7.82;7.07;;;19.90;99.90;;;;;;6211342;23;19997;-72
2023/08/11 07:31:32;;;;;;;10.38;8.90;;;20.00;99.90;;;;;;6183823;23;20003;-73
2023/08/11 07:33:58;;;;;;;8.90;7.75;;;20.10;99.90;;;;;;6185423;23;20000;-74
2023/08/11 07:36:23;;;;;;;7.75;6.90;;;20.10;99.90;;;;;;6184932;23;20054;-72
2023/08/11 07:38:49;;;;;;;8.40;7.38;;;20.20;99.90;;;;;;6212556;23;20000;-72
2023/08/11 07:41:14;;;;;;;9.30;7.57;;;20.30;99.90;;;;;;6211617;23;20008;-72
2023/08/11 07:43:40;;;;;;;8.60;7.53;;;20.40;99.90;;;;;;6212082;23;20005;-73
2023/08/11 07:46:06;;;;;;;8.32;7.03;;;20.50;99.90;;;;;;6210798;23;20170;-73
2023/08/11 07:48:31;;;;;;;13.52;7.45;;;20.60;99.90;;;;;;6211745;23;20001;-73
2023/08/11 07:50:57;;;;;;;11.45;7.75;;;20.70;99.90;;;;;;6211419;23;19996;-73
2023/08/11 07:53:22;;;;;;;8.60;7.30;;;20.80;99.90;;;;;;6210833;23;20059;-73
2023/08/11 07:55:48;;;;;;;8.90;7.25;;;20.90;99.90;;;;;;6210692;23;20000;-73
2023/08/11 07:58:14;;;;;;;9.20;7.28;;;21.00;99.90;;;;;;6210585;23;20055;-74
2023/08/11 08:00:39;;;;;;;7.93;7.13;;;21.10;99.90;;;;;;6211884;23;20076;-72
2023/08/11 08:03:05;;;;;;;8.23;6.65;;;21.20;99.90;;;;;;6211990;23;20062;-72
2023/08/11 08:05:31;;;;;;;7.07;6.38;;;21.40;99.90;;;;;;6212173;23;20000;-72
2023/08/11 08:07:57;;;;;;;8.68;7.72;;;21.50;99.90;;;;;;6212519;23;20008;-72
2023/08/11 08:10:25;;;;;;;8.07;5.90;;;21.50;99.90;;;;;;6211493;23;20007;-74
2023/08/11 08:12:50;;;;;;;9.00;6.32;;;21.60;99.90;;;;;;6185173;23;20005;-73
2023/08/11 08:15:16;;;;;;;9.18;6.63;;;21.80;99.90;;;;;;6211185;23;20043;-75
2023/08/11 08:17:42;;;;;;;9.18;6.63;;;21.90;99.90;;;;;;6212440;23;20088;-74
2023/08/11 08:20:08;;;;;;;9.27;6.05;;;22.00;99.90;;;;;;6212171;23;20426;-74
2023/08/11 08:22:34;;;;;;;8.10;5.65;;;22.10;99.90;;;;;;6185539;23;20043;-74
2023/08/11 08:25:00;;;;;;;5.95;5.35;;;22.20;99.90;;;;;;6185803;23;20079;-75
2023/08/11 08:27:26;;;;;;;7.47;5.50;;;22.30;99.90;;;;;;6185367;23;20034;-75
2023/08/11 08:29:54;;;;;;;5.55;4.88;;;22.40;99.90;;;;;;6211436;23;19996;-74
2023/08/11 08:32:20;;;;;;;7.85;5.78;;;22.50;99.90;;;;;;6211652;23;20076;-74
2023/08/11 08:34:48;;;;;;;7.72;5.28;;;22.50;99.90;;;;;;6212361;23;20035;-74
2023/08/11 08:37:14;;;;;;;9.23;5.63;;;22.60;99.90;;;;;;6185396;23;20008;-74
2023/08/11 08:39:39;;;;;;;8.63;4.35;;;22.70;99.90;;;;;;6212313;23;20432;-74
2023/08/11 08:42:05;;;;;;;8.18;5.38;;;22.70;99.90;;;;;;6211823;23;20004;-75
2023/08/11 08:44:35;;;;;;;6.70;4.57;;;22.80;99.90;;;;;;6210928;23;20000;-74
2023/08/11 08:47:04;;;;;;;6.28;5.20;;;22.90;99.90;;;;;;6211249;23;20001;-75
2023/08/11 08:49:30;;;;;;;6.22;4.68;;;23.00;99.90;;;;;;6211474;23;20001;-75
2023/08/11 08:51:56;;;;;;;5.50;4.75;;;23.00;99.90;;;;;;6210105;23;20012;-74
2023/08/11 08:54:22;;;;;;;5.88;4.70;;;23.10;99.90;;;;;;6210737;23;20091;-75
2023/08/11 08:56:51;;;;;;;5.70;4.60;;;23.20;99.90;;;;;;6184249;23;20035;-77
2023/08/11 08:59:16;;;;;;;6.20;4.18;;;23.20;99.90;;;;;;6208681;23;20008;-77
2023/08/11 09:01:42;;;;;;;5.57;4.20;;;23.30;99.80;;;;;;6209836;23;20001;-76
2023/08/11 09:04:08;;;;;;;4.30;3.88;;;23.30;99.50;;;;;;6210327;23;20103;-77
2023/08/11 09:06:35;;;;;;;5.63;4.40;;;23.50;99.20;;;;;;6211245;23;20058;-77
2023/08/11 09:09:03;;;;;;;7.82;4.93;;;23.50;99.20;;;;;;6211334;23;20051;-76
2023/08/11 09:11:29;;;;;;;7.40;4.38;;;23.60;99.00;;;;;;6211162;23;20076;-77
2023/08/11 09:14:01;;;;;;;5.68;3.95;;;23.70;98.80;;;;;;6210921;23;20001;-76
2023/08/11 09:16:27;;;;;;;5.00;3.75;;;23.80;98.70;;;;;;6211865;23;19996;-77
2023/08/11 09:18:53;;;;;;;5.82;3.97;;;23.80;98.60;;;;;;6211947;23;20079;-77
2023/08/11 09:21:23;;;;;;;5.03;3.47;;;23.90;98.50;;;;;;6211371;23;20072;-77
2023/08/11 09:23:55;;;;;;;4.85;3.60;;;24.00;98.30;;;;;;6185520;23;20012;-78
2023/08/11 09:26:21;;;;;;;5.22;4.45;;;24.10;97.90;;;;;;6211421;23;20000;-77
2023/08/11 09:28:48;;;;;;;4.65;3.83;;;24.20;97.60;;;;;;6211262;23;20024;-77
2023/08/11 09:31:14;;;;;;;4.38;3.60;;;24.20;97.30;;;;;;6210992;23;20036;-77
2023/08/11 09:33:40;;;;;;;6.50;4.78;;;24.30;97.20;;;;;;6184978;23;20012;-77
2023/08/11 09:36:06;;;;;;;4.03;3.50;;;24.30;96.90;;;;;;6211718;23;20005;-77
2023/08/11 09:38:31;;;;;;;5.35;3.92;;;24.40;96.80;;;;;;6211829;23;20008;-77
2023/08/11 09:41:03;;;;;;;5.07;4.22;;;24.50;96.70;;;;;;6211704;23;20004;-77
2023/08/11 09:43:30;;;;;;;4.53;3.38;;;24.60;96.40;;;;;;6211541;23;20004;-77
2023/08/11 09:45:56;;;;;;;6.03;4.28;;;24.70;96.50;;;;;;6213581;23;20023;-77
2023/08/11 09:48:22;;;;;;;5.88;4.78;;;24.80;96.20;;;;;;6186780;23;20474;-77
2023/08/11 09:50:49;;;;;;;5.32;3.80;;;24.90;95.90;;;;;;6213208;23;20004;-77
2023/08/11 09:53:15;;;;;;;5.32;4.10;;;25.10;95.80;;;;;;6212957;23;20100;-77
2023/08/11 09:55:42;;;;;;;5.32;3.60;;;25.30;95.50;;;;;;6213839;23;20001;-77
2023/08/11 09:58:11;;;;;;;5.13;4.18;;;25.40;95.20;;;;;;6186342;23;20020;-77
2023/08/11 10:00:38;;;;;;;4.95;4.05;;;25.50;95.20;;;;;;6186992;23;20431;-77
2023/08/11 10:03:12;;;;;;;3.97;3.58;;;25.70;95.00;;;;;;6213367;23;20016;-78
2023/08/11 10:05:42;;;;;;;7.70;4.50;;;25.90;94.70;;;;;;6213725;23;19999;-78
2023/08/11 10:08:19;;;;;;;5.53;4.80;;;26.00;94.40;;;;;;6213201;23;20377;-78
2023/08/11 10:10:45;;;;;;;5.22;4.70;;;26.10;94.30;;;;;;6186822;23;20058;-78
2023/08/11 10:13:25;;;;;;;6.22;4.40;;;26.20;94.10;;;;;;6212720;23;20377;-77
2023/08/11 10:15:53;;;;;;;4.47;4.07;;;26.30;93.70;;;;;;6212902;23;20023;-77
2023/08/11 10:18:20;;;;;;;4.78;3.70;;;26.40;93.80;;;;;;6212792;23;20036;-77
2023/08/11 10:20:49;;;;;;;9.65;4.78;;;26.40;93.80;;;;;;6213480;23;20016;-77
2023/08/11 10:23:19;;;;;;;5.80;3.83;;;26.40;93.70;;;;;;6186513;23;20075;-78
2023/08/11 10:25:46;;;;;;;5.38;3.45;;;26.40;93.60;;;;;;6212975;23;20001;-77
2023/08/11 10:28:12;;;;;;;3.75;3.45;;;26.40;93.50;;;;;;6213204;23;20012;-77
2023/08/11 10:30:40;;;;;;;6.53;4.15;;;26.40;93.70;;;;;;6213576;23;20004;-77
2023/08/11 10:33:07;;;;;;;4.68;3.92;;;26.40;93.70;;;;;;6186387;23;20008;-77
2023/08/11 10:35:34;;;;;;;4.38;4.03;;;26.50;93.60;;;;;;6213364;23;20446;-77
2023/08/11 10:38:00;;;;;;;4.88;3.72;;;26.50;93.40;;;;;;6212969;23;20369;-77
2023/08/11 10:40:39;;;;;;;7.30;3.78;;;26.50;93.20;;;;;;6212762;23;19997;-77
2023/08/11 10:43:05;;;;;;;6.68;3.33;;;26.60;93.20;;;;;;6212570;23;20009;-77
2023/08/11 10:45:33;;;;;;;7.75;4.20;;;26.60;93.20;;;;;;6213399;23;19997;-77
2023/08/11 10:47:59;;;;;;;4.07;3.53;;;26.60;93.10;;;;;;6212992;23;19996;-77
2023/08/11 10:50:25;;;;;;;6.35;3.90;;;26.60;92.90;;;;;;6213181;23;20300;-77
2023/08/11 10:53:16;;;;;;;4.63;3.60;;;26.60;93.00;;;;;;6184287;23;20457;-76
2023/08/11 10:55:42;;;;;;;4.30;3.00;;;26.70;93.00;;;;;;6209066;23;20083;-77
2023/08/11 10:58:17;;;;;;;5.25;3.85;;;26.80;93.10;;;;;;6210944;23;20005;-78
2023/08/11 11:00:43;;;;;;;4.57;2.92;;;26.90;92.70;;;;;;6212112;23;20068;-77
2023/08/11 11:03:11;;;;;;;4.35;3.22;;;26.90;92.60;;;;;;6211348;23;20059;-77
2023/08/11 11:05:37;;;;;;;3.90;2.55;;;27.00;92.60;;;;;;6213254;23;20419;-78
2023/08/11 11:08:02;;;;;;;4.93;2.78;;;27.10;92.70;;;;;;6212984;23;20050;-78
2023/08/11 11:10:28;;;;;;;3.75;2.80;;;27.10;92.30;;;;;;6212482;23;20011;-77
2023/08/11 11:12:55;;;;;;;4.45;3.13;;;27.20;92.00;;;;;;6212984;23;20001;-77
2023/08/11 11:15:21;;;;;;;4.10;3.10;;;27.20;91.90;;;;;;6212239;23;20449;-76
2023/08/11 11:17:47;;;;;;;3.00;2.67;;;27.20;91.80;;;;;;6212911;23;20076;-75
2023/08/11 11:20:13;;;;;;;2.83;2.30;;;27.20;91.90;;;;;;6212647;23;19997;-76
2023/08/11 11:22:47;;;;;;;3.47;2.65;;;27.20;92.00;;;;;;6212916;23;20070;-76
2023/08/11 11:25:12;;;;;;;;;;;27.20;91.80;;;;;;6212307;23;20059;-76
2023/08/11 11:27:42;;;;;;;2.67;2.20;;;27.20;92.00;;;;;;6213062;23;20211;-76
2023/08/11 11:30:09;;;;;;;4.68;2.22;;;27.10;91.90;;;;;;6212167;23;20008;-76
2023/08/11 11:32:35;;;;;;;4.30;2.67;;;27.10;91.80;;;;;;6212938;23;20354;-76
2023/08/11 11:35:00;;;;;;;3.85;2.42;;;27.10;91.90;;;;;;6212416;23;19997;-76
2023/08/11 11:37:26;;;;;;;3.10;2.40;;;27.10;91.90;;;;;;6212630;23;20494;-76
2023/08/11 11:39:53;;;;;;;5.20;2.28;;;27.10;91.80;;;;;;6212683;23;20370;-76
2023/08/11 11:42:19;;;;;;;3.35;2.70;;;27.10;91.70;;;;;;6212317;23;20016;-76
2023/08/11 11:44:45;;;;;;;5.88;2.60;;;27.10;91.60;;;;;;6212847;23;20068;-77
2023/08/11 11:47:11;;;;;;;2.80;2.25;;;27.10;91.60;;;;;;6212414;23;20008;-76
2023/08/11 11:49:37;;;;;;;2.35;2.05;;;27.10;91.60;;;;;;6212566;23;20007;-77
2023/08/11 11:52:04;;;;;;;3.75;2.47;;;27.10;91.60;;;;;;6212345;23;20342;-76
2023/08/11 11:54:30;;;;;;;3.22;2.47;;;27.20;91.90;;;;;;6211896;23;20027;-76
2023/08/11 11:57:02;;;;;;;3.97;2.42;;;27.20;91.70;;;;;;6212791;23;20004;-76
2023/08/11 11:59:28;;;;;;;2.22;2.03;;;27.20;91.80;;;;;;6212425;23;20008;-77
2023/08/11 12:01:59;;;;;;;3.45;2.10;;;27.30;91.70;;;;;;6212596;23;20004;-76
2023/08/11 12:04:25;;;;;;;2.60;1.75;;;27.30;91.60;;;;;;6212366;23;19997;-76
2023/08/11 12:06:50;;;;;;;2.88;2.10;;;27.30;91.70;;;;;;6211735;23;20051;-76
2023/08/11 12:09:16;;;;;;;2.33;1.73;;;27.30;91.80;;;;;;6211611;23;20367;-77
2023/08/11 12:11:42;;;;;;;4.72;2.58;;;27.30;91.50;;;;;;6212512;23;20030;-76
2023/08/11 12:14:08;;;;;;;4.35;2.15;;;27.40;91.40;;;;;;6212079;23;20001;-76
2023/08/11 12:16:35;;;;;;;2.20;2.00;;;27.40;91.30;;;;;;6212472;23;20009;-76
2023/08/11 12:19:02;;;;;;;2.50;2.20;;;27.50;91.30;;;;;;6212175;23;20004;-76
2023/08/11 12:21:28;;;;;;;3.40;1.92;;;27.50;91.20;;;;;;6211443;23;20007;-76
2023/08/11 12:23:54;;;;;;;2.20;1.65;;;27.50;91.20;;;;;;6212329;23;20011;-76
2023/08/11 12:26:20;;;;;;;3.35;2.22;;;27.60;91.40;;;;;;6210197;23;20028;-77
2023/08/11 12:28:45;;;;;;;2.60;2.03;;;27.60;91.30;;;;;;6210109;23;20095;-77
2023/08/11 12:31:11;;;;;;;2.38;2.17;;;27.60;91.30;;;;;;6209622;23;20001;-76
2023/08/11 12:33:38;;;;;;;2.58;2.38;;;27.60;91.30;;;;;;6209797;23;19997;-77
2023/08/11 12:36:03;;;;;;;3.85;2.80;;;27.60;91.20;;;;;;6209710;23;20046;-77
2023/08/11 12:38:30;;;;;;;4.75;2.35;;;27.60;90.90;;;;;;6211476;23;20434;-77